Time;durP1;ratioP1;P1;durP2;ratioP2;P2;SDS_P1;SDS_P2;PMS_P1;PMS_P2;Temp;Humidity;BMP_temperature;BMP_pressure;BME280_temperature;BME280_humidity;BME280_pressure;Samples;Min_cycle;Max_cycle;Signal;HPM_P1;HPM_P2
2022/10/03 00:00:10;;;;;;;;;;;12.40;99.90;;;;;;6110848;23;19968;-75
2022/10/03 00:02:52;;;;;;;;;;;12.40;99.90;;;;;;6111514;23;19920;-75
2022/10/03 00:05:36;;;;;;;;;;;12.40;99.90;;;;;;6106672;23;19924;-75
2022/10/03 00:08:17;;;;;;;;;;;12.40;99.90;;;;;;6111075;23;19909;-75
2022/10/03 00:10:53;;;;;;;;;;;12.40;99.90;;;;;;6116650;23;19909;-75
2022/10/03 00:13:20;;;;;;;;;;;12.40;99.90;;;;;;6119169;23;19908;-75
2022/10/03 00:15:46;;;;;;;;;;;12.40;99.90;;;;;;6112340;23;19905;-75
2022/10/03 00:18:33;;;;;;;;;;;12.40;99.90;;;;;;6112304;23;19912;-75
2022/10/03 00:21:13;;;;;;;;;;;12.40;99.90;;;;;;6110772;23;19900;-75
2022/10/03 00:23:47;;;;;;;;;;;12.40;99.90;;;;;;6112687;23;19911;-75
2022/10/03 00:26:31;;;;;;;;;;;12.40;99.90;;;;;;6105735;23;20296;-76
2022/10/03 00:29:02;;;;;;;;;;;12.30;99.90;;;;;;6111677;23;20359;-76
2022/10/03 00:31:47;;;;;;;;;;;12.30;99.90;;;;;;6110461;23;20223;-75
2022/10/03 00:34:20;;;;;;;;;;;12.30;99.90;;;;;;6106058;23;19916;-75
2022/10/03 00:37:04;;;;;;;;;;;12.30;99.90;;;;;;6110526;23;20649;-75
2022/10/03 00:39:32;;;;;;;;;;;12.30;99.90;;;;;;6111832;23;19904;-75
2022/10/03 00:42:03;;;;;;;;;;;12.30;99.90;;;;;;6111243;23;19959;-75
2022/10/03 00:44:31;;;;;;;;;;;12.30;99.90;;;;;;6110841;23;19979;-76
2022/10/03 00:47:14;;;;;;;;;;;12.30;99.90;;;;;;6105372;23;19901;-75
2022/10/03 00:49:55;;;;;;;;;;;12.40;99.90;;;;;;6111011;23;19904;-75
2022/10/03 00:52:36;;;;;;;;;;;12.40;99.90;;;;;;6110901;23;19901;-75
2022/10/03 00:55:38;;;;;;;;;;;12.40;99.90;;;;;;6112669;23;19935;-75
2022/10/03 00:58:09;;;;;;;;;;;12.40;99.90;;;;;;5969036;24;19943;-75
2022/10/03 01:00:35;;;;;;;;;;;12.40;99.90;;;;;;6086950;23;19905;-75
2022/10/03 01:03:24;;;;;;;;;;;12.40;99.90;;;;;;6085603;23;20411;-75
2022/10/03 01:06:04;;;;;;;;;;;12.40;99.90;;;;;;6109471;23;19975;-75
2022/10/03 01:08:31;;;;;;;;;;;12.30;99.90;;;;;;6109926;23;19905;-75
2022/10/03 01:11:15;;;;;;;;;;;12.40;99.90;;;;;;6109095;23;19984;-75
2022/10/03 01:13:45;;;;;;;;;;;12.30;99.90;;;;;;6136961;23;19912;-75
2022/10/03 01:16:10;;;;;;;;;;;12.30;99.90;;;;;;6140047;23;19906;-75
2022/10/03 01:18:53;;;;;;;;;;;12.30;99.90;;;;;;6141227;23;19915;-76
2022/10/03 01:21:30;;;;;;;;;;;12.30;99.90;;;;;;6139359;23;19927;-76
2022/10/03 01:24:32;;;;;;;;;;;12.30;99.90;;;;;;6146420;23;20013;-76
2022/10/03 01:27:02;;;;;;;;;;;12.30;99.90;;;;;;6050851;23;20567;-75
2022/10/03 01:32:43;;;;;;;;;;;12.30;99.90;;;;;;6140406;23;19983;-75
2022/10/03 01:35:34;;;;;;;;;;;12.40;99.90;;;;;;6127167;23;19943;-75
2022/10/03 01:38:20;;;;;;;;;;;12.40;99.90;;;;;;6106806;23;20488;-76
2022/10/03 01:41:02;;;;;;;;;;;12.40;99.90;;;;;;6134358;23;19990;-76
2022/10/03 01:43:46;;;;;;;;;;;12.40;99.90;;;;;;6114633;23;19901;-75
2022/10/03 01:46:16;;;;;;;;;;;12.50;99.90;;;;;;6109162;23;19900;-76
2022/10/03 01:48:55;;;;;;;;;;;12.50;99.90;;;;;;6140724;23;19900;-75
2022/10/03 01:51:33;;;;;;;;;;;12.50;99.90;;;;;;6139297;23;19962;-75
2022/10/03 01:54:02;;;;;;;;;;;12.50;99.90;;;;;;6140881;23;19916;-75
2022/10/03 01:56:30;;;;;;;;;;;12.50;99.90;;;;;;6140694;23;19960;-75
2022/10/03 01:59:05;;;;;;;;;;;12.40;99.90;;;;;;6141080;23;20234;-75
2022/10/03 02:01:31;;;;;;;;;;;12.40;99.90;;;;;;6140579;23;20299;-74
2022/10/03 02:04:12;;;;;;;;;;;12.50;99.90;;;;;;6140697;23;19911;-75
2022/10/03 02:06:51;;;;;;;;;;;12.50;99.90;;;;;;6140544;23;19904;-75
2022/10/03 02:09:20;;;;;;;;;;;12.50;99.90;;;;;;6139263;23;19915;-75
2022/10/03 02:11:49;;;;;;;;;;;12.50;99.90;;;;;;6138694;23;19932;-75
2022/10/03 02:14:33;;;;;;;;;;;12.50;99.90;;;;;;6137594;23;19908;-75
2022/10/03 02:17:02;;;;;;;;;;;12.50;99.90;;;;;;6138791;23;19904;-75
2022/10/03 02:19:47;;;;;;;;;;;12.60;99.90;;;;;;6138773;23;20108;-75
2022/10/03 02:22:27;;;;;;;;;;;12.60;99.90;;;;;;6138639;23;19956;-76
2022/10/03 02:25:07;;;;;;;;;;;12.60;99.90;;;;;;6134174;23;19904;-75
2022/10/03 02:27:53;;;;;;;;;;;12.60;99.90;;;;;;6140916;23;19900;-75
2022/10/03 02:30:18;;;;;;;;;;;12.60;99.90;;;;;;6137661;23;19912;-75
2022/10/03 02:33:03;;;;;;;;;;;12.60;99.90;;;;;;6137732;23;19904;-75
2022/10/03 02:35:50;;;;;;;;;;;12.60;99.90;;;;;;6137691;23;19904;-75
2022/10/03 02:38:28;;;;;;;;;;;12.60;99.90;;;;;;6106758;23;20334;-75
2022/10/03 02:41:17;;;;;;;;;;;12.60;99.90;;;;;;6110909;23;19905;-75
2022/10/03 02:44:02;;;;;;;;;;;12.50;99.90;;;;;;6139368;23;20230;-75
2022/10/03 02:46:44;;;;;;;;;;;12.50;99.90;;;;;;6114575;23;19908;-76
2022/10/03 02:49:26;;;;;;;;;;;12.40;99.90;;;;;;6144334;23;19904;-75
2022/10/03 02:52:00;;;;;;;;;;;12.40;99.90;;;;;;6143604;23;19900;-75
2022/10/03 02:54:26;;;;;;;;;;;12.30;99.90;;;;;;6139059;23;20207;-75
2022/10/03 02:57:16;;;;;;;;;;;12.30;99.90;;;;;;6138812;23;19951;-75
2022/10/03 02:59:57;;;;;;;;;;;12.40;99.90;;;;;;6129371;23;19901;-75
2022/10/03 03:02:26;;;;;;;;;;;12.40;99.90;;;;;;6145044;23;19931;-76
2022/10/03 03:05:09;;;;;;;;;;;12.30;99.90;;;;;;6133776;23;19988;-76
2022/10/03 03:07:54;;;;;;;;;;;12.30;99.90;;;;;;6139957;23;19897;-75
2022/10/03 03:10:31;;;;;;;;;;;12.30;99.90;;;;;;6114446;23;19907;-75
2022/10/03 03:13:08;;;;;;;;;;;12.30;99.90;;;;;;6138973;23;19922;-75
2022/10/03 03:15:40;;;;;;;;;;;12.30;99.90;;;;;;6139015;23;19963;-75
2022/10/03 03:18:10;;;;;;;;;;;12.20;99.90;;;;;;6138804;23;19936;-76
2022/10/03 03:20:57;;;;;;;;;;;12.20;99.90;;;;;;6139917;23;19904;-75
2022/10/03 03:23:51;;;;;;;;;;;12.20;99.90;;;;;;6114380;23;19947;-75
2022/10/03 03:26:26;;;;;;;;;;;12.20;99.90;;;;;;6140174;23;19901;-74
2022/10/03 03:28:56;;;;;;;;;;;12.30;99.90;;;;;;6140237;23;19924;-75
2022/10/03 03:31:30;;;;;;;;;;;12.30;99.90;;;;;;6139911;23;19900;-75
2022/10/03 03:34:13;;;;;;;;;;;12.30;99.90;;;;;;6139037;23;19904;-74
2022/10/03 03:36:48;;;;;;;;;;;12.20;99.90;;;;;;6145695;23;19904;-76
2022/10/03 03:39:24;;;;;;;;;;;12.30;99.90;;;;;;6144014;23;19956;-75
2022/10/03 03:42:01;;;;;;;;;;;12.20;99.90;;;;;;6145052;23;19908;-75
2022/10/03 03:44:31;;;;;;;;;;;12.20;99.90;;;;;;6134130;23;20234;-75
2022/10/03 03:47:05;;;;;;;;;;;12.20;99.90;;;;;;6145862;23;20037;-75
2022/10/03 03:49:58;;;;;;;;;;;12.20;99.90;;;;;;6134105;23;20436;-76
2022/10/03 03:52:24;;;;;;;;;;;12.20;99.90;;;;;;6113837;23;20305;-75
2022/10/03 03:54:58;;;;;;;;;;;12.20;99.90;;;;;;6133418;23;20338;-75
2022/10/03 03:57:59;;;;;;;;;;;12.20;99.90;;;;;;6139978;23;19940;-76
2022/10/03 04:00:41;;;;;;;;;;;12.20;99.90;;;;;;6076614;23;20243;-76
2022/10/03 04:03:11;;;;;;;;;;;12.10;99.90;;;;;;6138492;23;20011;-75
2022/10/03 04:05:40;;;;;;;;;;;12.20;99.90;;;;;;6146870;23;19939;-75
2022/10/03 04:08:33;;;;;;;;;;;12.10;99.90;;;;;;6140404;23;20219;-75
2022/10/03 04:11:12;;;;;;;;;;;12.20;99.90;;;;;;6135976;23;19901;-75
2022/10/03 04:13:46;;;;;;;;;;;12.10;99.90;;;;;;6121864;23;19975;-76
2022/10/03 04:18:56;;;;;;;;;;;12.10;99.90;;;;;;6112720;23;19908;-75
2022/10/03 04:19:22;;;;;;;;;;;12.10;99.90;;;;;;6111166;23;20231;-68
2022/10/03 04:21:56;;;;;;;;;;;12.10;99.90;;;;;;6109924;23;19988;-71
2022/10/03 04:24:35;;;;;;;;;;;12.30;99.90;;;;;;6107761;23;19978;-72
2022/10/03 04:27:16;;;;;;;;;;;12.30;99.90;;;;;;6108567;23;19904;-71
2022/10/03 04:29:41;;;;;;;;;;;12.20;99.90;;;;;;6107565;23;20386;-71
2022/10/03 04:32:22;;;;;;;;;;;12.10;99.90;;;;;;6112984;23;19956;-71
2022/10/03 04:34:53;;;;;;;;;;;12.10;99.90;;;;;;6108153;23;20404;-71
2022/10/03 04:37:40;;;;;;;;;;;12.10;99.90;;;;;;6109744;23;20531;-71
2022/10/03 04:40:20;;;;;;;;;;;12.10;99.90;;;;;;6104840;23;19911;-71
2022/10/03 04:42:51;;;;;;;;;;;12.00;99.90;;;;;;6087089;23;19927;-71
2022/10/03 04:45:17;;;;;;;;;;;12.00;99.90;;;;;;6113000;23;19905;-71
2022/10/03 04:47:42;;;;;;;;;;;12.00;99.90;;;;;;6107417;23;20532;-71
2022/10/03 04:50:11;;;;;;;;;;;12.00;99.90;;;;;;6109210;23;19936;-71
2022/10/03 04:52:39;;;;;;;;;;;12.10;99.90;;;;;;6108558;23;20907;-72
2022/10/03 04:55:14;;;;;;;;;;;12.00;99.90;;;;;;6113399;23;20520;-71
2022/10/03 04:57:46;;;;;;;;;;;12.00;99.90;;;;;;6109071;23;19936;-71
2022/10/03 05:00:32;;;;;;;;;;;12.00;99.90;;;;;;6105950;23;20383;-71
2022/10/03 05:03:00;;;;;;;;;;;12.00;99.90;;;;;;6108969;23;19901;-71
2022/10/03 05:05:46;;;;;;;;;;;12.00;99.90;;;;;;6102669;23;20243;-71
2022/10/03 05:08:32;;;;;;;;;;;12.10;99.90;;;;;;6107426;23;19900;-71
2022/10/03 05:11:06;;;;;;;;;;;12.20;99.90;;;;;;6052590;23;20212;-71
2022/10/03 05:13:42;;;;;;;;;;;12.40;99.90;;;;;;6107914;23;19959;-71
2022/10/03 05:16:07;;;;;;;;;;;12.60;99.90;;;;;;6083352;23;19904;-71
2022/10/03 05:18:40;;;;;;;;;;;12.80;99.90;;;;;;6102091;23;19912;-71
2022/10/03 05:21:24;;;;;;;;;;;13.10;99.90;;;;;;6107481;23;19976;-71
2022/10/03 05:24:02;;;;;;;;;;;13.20;99.90;;;;;;6102802;23;19909;-71
2022/10/03 05:26:45;;;;;;;;;;;13.50;99.90;;;;;;6108121;23;19980;-71
2022/10/03 05:29:14;;;;;;;;;;;13.70;99.90;;;;;;6110251;23;19984;-72
2022/10/03 05:31:39;;;;;;;;;;;14.00;99.90;;;;;;6108058;23;20344;-69
2022/10/03 05:34:17;;;;;;;;;;;14.20;99.90;;;;;;6108160;23;19944;-69
2022/10/03 05:36:46;;;;;;;;;;;14.70;99.90;;;;;;6106642;23;20295;-69
2022/10/03 05:39:30;;;;;;;;;;;15.00;99.90;;;;;;6107885;23;19905;-69
2022/10/03 05:42:14;;;;;;;;;;;15.20;99.90;;;;;;6107128;23;19901;-69
2022/10/03 05:44:43;;;;;;;;;;;15.70;99.90;;;;;;6104620;23;20295;-69
2022/10/03 05:47:47;;;;;;;;;;;15.70;99.90;;;;;;6108438;23;19905;-69
2022/10/03 05:50:32;;;;;;;;;;;15.40;99.90;;;;;;6108235;23;19912;-72
2022/10/03 05:53:02;;;;;;;;;;;15.00;99.90;;;;;;6107737;23;19905;-72
2022/10/03 05:55:46;;;;;;;;;;;14.60;99.90;;;;;;6108520;23;19959;-72
2022/10/03 05:58:21;;;;;;;;;;;14.30;99.90;;;;;;6110514;23;19912;-72
2022/10/03 06:00:47;;;;;;;;;;;14.10;99.90;;;;;;6110601;23;19904;-73
2022/10/03 06:03:26;;;;;;;;;;;14.00;99.90;;;;;;6106182;23;20027;-72
2022/10/03 06:06:10;;;;;;;;;;;13.80;99.90;;;;;;6108638;23;19905;-72
2022/10/03 06:08:40;;;;;;;;;;;13.70;99.90;;;;;;6108915;23;19951;-72
2022/10/03 06:11:06;;;;;;;;;;;13.60;99.90;;;;;;6103714;23;19905;-72
2022/10/03 06:13:52;;;;;;;;;;;13.60;99.90;;;;;;6125713;23;19920;-72
2022/10/03 06:16:24;;;;;;;;;;;13.40;99.90;;;;;;6138397;23;20031;-72
2022/10/03 06:18:49;;;;;;;;;;;13.40;99.90;;;;;;6138107;23;19909;-72
2022/10/03 06:21:34;;;;;;;;;;;13.40;99.90;;;;;;6142123;23;20304;-72
2022/10/03 06:24:19;;;;;;;;;;;13.50;99.90;;;;;;6137443;23;19901;-73
2022/10/03 06:27:04;;;;;;;;;;;13.40;99.90;;;;;;6139481;23;19912;-72
2022/10/03 06:29:46;;;;;;;;;;;13.70;99.90;;;;;;6113315;23;19908;-71
2022/10/03 06:32:30;;;;;;;;;;;15.00;99.90;;;;;;6139186;23;19904;-72
2022/10/03 06:35:15;;;;;;;;;;;16.30;99.90;;;;;;6115044;23;19908;-72
2022/10/03 06:37:56;;;;;;;;;;;17.30;99.90;;;;;;6137529;23;19905;-73
2022/10/03 06:40:27;;;;;;;;;;;17.90;99.50;;;;;;6136773;23;19900;-73
2022/10/03 06:43:12;;;;;;;;;;;18.80;97.60;;;;;;6138805;23;20377;-72
2022/10/03 06:45:56;;;;;;;;;;;18.80;97.00;;;;;;6111418;23;19905;-72
2022/10/03 06:48:22;;;;;;;;;;;18.50;96.60;;;;;;6137260;23;19904;-73
2022/10/03 06:50:54;;;;;;;;;;;18.00;96.90;;;;;;6139808;23;19912;-72
2022/10/03 06:53:19;;;;;;;;;;;17.60;97.30;;;;;;6143105;23;19928;-72
2022/10/03 06:55:46;;;;;;;;;;;17.60;98.00;;;;;;6134471;23;19905;-72
2022/10/03 06:58:26;;;;;;;;;;;18.00;97.20;;;;;;6137365;23;20100;-72
2022/10/03 07:01:13;;;;;;;;;;;18.70;96.60;;;;;;6138987;23;19955;-73
2022/10/03 07:03:45;;;;;;;;;;;19.40;94.60;;;;;;6135754;23;20258;-73
2022/10/03 07:06:32;;;;;;;;;;;19.50;94.20;;;;;;6137740;23;19904;-73
2022/10/03 07:09:16;;;;;;;;;;;19.50;93.90;;;;;;6137176;23;19912;-73
2022/10/03 07:11:47;;;;;;;;;;;20.00;92.50;;;;;;6137634;23;20424;-72
2022/10/03 07:14:18;;;;;;;;;;;19.90;91.70;;;;;;6111998;23;20267;-72
2022/10/03 07:16:47;;;;;;;;;;;19.40;92.80;;;;;;6109722;23;20204;-73
2022/10/03 07:19:31;;;;;;;;;;;19.70;92.20;;;;;;6110970;23;19911;-73
2022/10/03 07:22:17;;;;;;;;;;;19.60;91.90;;;;;;6112081;23;19909;-73
2022/10/03 07:24:55;;;;;;;;;;;20.10;91.80;;;;;;6103868;23;20832;-73
2022/10/03 07:27:26;;;;;;;;;;;20.10;90.70;;;;;;6108643;23;19979;-73
2022/10/03 07:30:11;;;;;;;;;;;19.30;91.30;;;;;;6107306;23;19901;-72
2022/10/03 07:32:36;;;;;;;;;;;18.80;92.00;;;;;;6106923;23;20300;-73
2022/10/03 07:35:11;;;;;;;;;;;18.30;92.40;;;;;;6112309;23;19905;-72
2022/10/03 07:40:48;;;;;;;;;;;17.60;93.60;;;;;;6114085;23;19951;-72
2022/10/03 07:43:32;;;;;;;;;;;17.20;94.10;;;;;;6110421;23;19905;-72
2022/10/03 07:46:02;;;;;;;;;;;17.00;94.70;;;;;;6110064;23;19979;-72
2022/10/03 07:48:34;;;;;;;;;;;16.70;95.00;;;;;;6110023;23;19979;-72
2022/10/03 07:51:05;;;;;;;;;;;16.40;95.70;;;;;;6113830;23;19996;-72
2022/10/03 07:53:42;;;;;;;;;;;16.20;96.10;;;;;;6108384;23;19972;-69
2022/10/03 07:56:34;;;;;;;;;;;16.10;98.60;;;;;;6108569;23;19909;-72
2022/10/03 07:59:00;;;;;;;;;;;16.50;97.50;;;;;;6028971;23;19905;-72
2022/10/03 08:01:26;;;;;;;;;;;16.80;95.60;;;;;;6107494;23;20007;-72
2022/10/03 08:03:54;;;;;;;;;;;16.90;95.40;;;;;;6109709;23;20294;-72
2022/10/03 08:06:25;;;;;;;;;;;17.10;95.20;;;;;;6114326;23;19900;-72
2022/10/03 08:09:05;;;;;;;;;;;18.20;93.90;;;;;;6109431;23;19901;-73
2022/10/03 08:11:31;;;;;;;;;;;18.90;91.90;;;;;;6110605;23;20368;-72
2022/10/03 08:14:03;;;;;;;;;;;18.80;91.60;;;;;;6113890;23;19912;-73
2022/10/03 08:16:44;;;;;;;;;;;19.10;91.80;;;;;;6108740;23;19905;-72
2022/10/03 08:19:20;;;;;;;;;;;19.80;90.60;;;;;;6104395;23;20351;-73
2022/10/03 08:21:52;;;;;;;;;;;20.30;87.60;;;;;;6085205;23;20165;-73
2022/10/03 08:24:17;;;;;;;;;;;19.80;88.00;;;;;;6109221;23;20000;-72
2022/10/03 08:26:58;;;;;;;;;;;19.50;88.20;;;;;;6109536;23;19948;-72
2022/10/03 08:29:39;;;;;;;;;;;19.10;89.10;;;;;;6110512;23;20425;-73
2022/10/03 08:32:23;;;;;;;;;;;18.70;90.10;;;;;;6108866;23;20282;-72
2022/10/03 08:35:07;;;;;;;;;;;18.20;90.70;;;;;;6109977;23;19908;-72
2022/10/03 08:37:44;;;;;;;;;;;18.50;90.60;;;;;;6109857;23;19901;-72
2022/10/03 08:40:19;;;;;;;;;;;20.00;87.00;;;;;;6111121;23;19905;-72
2022/10/03 08:42:57;;;;;;;;;;;21.50;83.60;;;;;;6110450;23;19976;-72
2022/10/03 08:45:35;;;;;;;;;;;23.20;79.30;;;;;;6114890;23;19968;-73
2022/10/03 08:48:08;;;;;;;;;;;24.90;73.70;;;;;;6108381;23;20386;-73
2022/10/03 08:50:33;;;;;;;;;;;24.50;71.50;;;;;;6109848;23;19908;-69
2022/10/03 08:52:59;;;;;;;;;;;24.70;73.00;;;;;;6106223;23;19920;-69
2022/10/03 08:55:25;;;;;;;;;;;25.00;72.30;;;;;;6113026;23;19916;-71
2022/10/03 08:58:06;;;;;;;;;;;25.40;68.20;;;;;;6106336;23;19972;-70
2022/10/03 09:00:52;;;;;;;;;;;25.40;67.60;;;;;;6107715;23;19901;-71
2022/10/03 09:03:50;;;;;;;;;;;24.50;68.70;;;;;;6108207;23;20319;-70
2022/10/03 09:06:34;;;;;;;;;;;24.10;68.00;;;;;;6028533;23;19971;-71
2022/10/03 09:09:15;;;;;;;;;;;23.80;70.80;;;;;;6108030;23;19904;-71
2022/10/03 09:11:48;;;;;;;;;;;26.10;66.50;;;;;;6110294;23;19904;-70
2022/10/03 09:14:14;;;;;;;;;;;26.50;64.10;;;;;;6105872;23;19912;-70
2022/10/03 09:16:48;;;;;;;;;;;25.20;65.80;;;;;;6111994;23;19943;-70
2022/10/03 09:19:34;;;;;;;;;;;25.20;65.40;;;;;;6110428;23;20350;-70
2022/10/03 09:22:02;;;;;;;;;;;26.70;63.60;;;;;;6112009;23;19908;-70
2022/10/03 09:24:40;;;;;;;;;;;27.40;61.20;;;;;;6104990;23;19905;-68
2022/10/03 09:27:38;;;;;;;;;;;27.80;61.30;;;;;;6108547;23;20356;-70
2022/10/03 09:30:09;;;;;;;;;;;27.30;60.30;;;;;;6030068;23;19904;-70
2022/10/03 09:32:40;;;;;;;;;;;27.10;60.50;;;;;;6111816;23;20570;-70
2022/10/03 09:35:25;;;;;;;;;;;25.50;62.50;;;;;;6115032;23;19908;-69
2022/10/03 09:37:57;;;;;;;;;;;24.10;63.60;;;;;;6103343;23;19901;-70
2022/10/03 09:40:38;;;;;;;;;;;23.80;64.60;;;;;;6114833;23;19905;-70
2022/10/03 09:43:03;;;;;;;;;;;26.00;63.70;;;;;;6106885;23;19911;-68
2022/10/03 09:45:47;;;;;;;;;;;28.10;59.50;;;;;;6113090;23;20235;-67
2022/10/03 09:48:22;;;;;;;;;;;28.60;59.00;;;;;;6106669;23;19939;-68
2022/10/03 09:51:06;;;;;;;;;;;29.30;56.50;;;;;;6109465;23;19905;-68
2022/10/03 09:53:51;;;;;;;;;;;29.20;55.70;;;;;;6108791;23;19980;-69
2022/10/03 09:56:18;;;;;;;;;;;29.10;55.10;;;;;;6104531;23;19908;-69
2022/10/03 09:58:50;;;;;;;;;;;28.60;54.60;;;;;;6108939;23;19951;-70
2022/10/03 10:01:29;;;;;;;;;;;28.90;54.60;;;;;;6111359;23;20571;-69
2022/10/03 10:03:55;;;;;;;;;;;29.20;54.50;;;;;;6108049;23;20411;-66
2022/10/03 10:06:32;;;;;;;;;;;30.70;53.60;;;;;;6108378;23;20438;-65
2022/10/03 10:09:30;;;;;;;;;;;31.40;52.50;;;;;;6102759;23;19907;-65
2022/10/03 10:12:23;;;;;;;;;;;32.30;51.20;;;;;;6025836;23;20317;-65
2022/10/03 10:14:51;;;;;;;;;;;33.00;49.70;;;;;;6102783;23;19920;-65
2022/10/03 10:17:25;;;;;;;;;;;33.00;49.00;;;;;;6109214;23;20595;-67
2022/10/03 10:19:53;;;;;;;;;;;32.80;48.10;;;;;;6104116;23;19904;-65
2022/10/03 10:22:42;;;;;;;;;;;32.40;48.60;;;;;;6111364;23;19936;-68
2022/10/03 10:25:16;;;;;;;;;;;29.10;51.50;;;;;;6113421;23;20224;-67
2022/10/03 10:27:51;;;;;;;;;;;29.80;51.40;;;;;;6107551;23;20322;-67
2022/10/03 10:30:24;;;;;;;;;;;31.20;49.90;;;;;;6107924;23;19960;-67
2022/10/03 10:33:11;;;;;;;;;;;30.70;49.50;;;;;;6109083;23;20307;-67
2022/10/03 10:35:39;;;;;;;;;;;30.60;50.00;;;;;;6111480;23;20358;-66
2022/10/03 10:38:06;;;;;;;;;;;29.80;49.30;;;;;;6106683;23;19901;-67
2022/10/03 10:40:38;;;;;;;;;;;29.40;49.30;;;;;;6106896;23;19912;-67
2022/10/03 10:43:23;;;;;;;;;;;28.00;51.30;;;;;;6109359;23;19944;-66
2022/10/03 10:46:07;;;;;;;;;;;26.80;52.30;;;;;;6103994;23;19901;-67
2022/10/03 10:48:49;;;;;;;;;;;25.30;55.00;;;;;;6112686;23;19905;-66
2022/10/03 10:51:38;;;;;;;;;;;23.80;56.00;;;;;;6106804;23;19943;-67
2022/10/03 10:54:12;;;;;;;;;;;22.70;57.20;;;;;;6107045;23;19971;-67
2022/10/03 10:56:56;;;;;;;;;;;21.70;59.50;;;;;;6112018;23;20271;-66
2022/10/03 10:59:22;;;;;;;;;;;20.90;61.10;;;;;;6106888;23;19908;-66
2022/10/03 11:02:12;;;;;;;;;;;20.30;62.90;;;;;;6101512;23;19905;-66
2022/10/03 11:04:57;;;;;;;;;;;19.70;64.10;;;;;;6105845;23;19908;-71
2022/10/03 11:07:25;;;;;;;;;;;19.20;65.40;;;;;;6106073;23;19904;-72
2022/10/03 11:10:00;;;;;;;;;;;18.70;66.60;;;;;;6108516;23;20228;-71
2022/10/03 11:12:45;;;;;;;;;;;18.80;67.70;;;;;;6106791;23;20307;-72
2022/10/03 11:15:23;;;;;;;;;;;18.90;67.80;;;;;;6133984;23;19908;-71
2022/10/03 11:18:07;;;;;;;;;;;19.20;67.60;;;;;;6134183;23;19912;-72
2022/10/03 11:20:46;;;;;;;;;;;19.40;67.00;;;;;;6108526;23;20318;-72
2022/10/03 11:23:31;;;;;;;;;;;19.60;67.00;;;;;;6110738;23;20295;-72
2022/10/03 11:25:57;;;;;;;;;;;19.70;66.90;;;;;;6109750;23;19912;-72
2022/10/03 11:28:52;;;;;;;;;;;20.00;65.80;;;;;;6132761;23;20337;-72
2022/10/03 11:31:24;;;;;;;;;;;20.00;65.40;;;;;;6108839;23;19909;-72
2022/10/03 11:33:59;;;;;;;;;;;20.30;65.30;;;;;;6133129;23;19987;-71
2022/10/03 11:36:43;;;;;;;;;;;20.30;65.60;;;;;;6109445;23;19940;-72
2022/10/03 11:39:14;;;;;;;;;;;19.80;65.30;;;;;;6110556;23;19947;-72
2022/10/03 11:41:50;;;;;;;;;;;19.70;65.90;;;;;;6114351;23;19985;-72
2022/10/03 11:44:21;;;;;;;;;;;19.30;66.60;;;;;;6132169;23;19924;-72
2022/10/03 11:47:07;;;;;;;;;;;18.90;67.70;;;;;;6109614;23;20513;-72
2022/10/03 11:49:51;;;;;;;;;;;18.80;68.50;;;;;;6109691;23;20563;-72
2022/10/03 11:52:20;;;;;;;;;;;18.70;69.70;;;;;;6132031;23;19905;-72
2022/10/03 11:54:47;;;;;;;;;;;18.80;70.40;;;;;;6110367;23;20576;-72
2022/10/03 11:57:21;;;;;;;;;;;19.00;70.50;;;;;;6110394;23;19904;-73
2022/10/03 12:00:05;;;;;;;;;;;19.00;70.90;;;;;;6110422;23;19983;-71
2022/10/03 12:02:38;;;;;;;;;;;19.10;70.30;;;;;;6104754;23;20422;-73
2022/10/03 12:05:24;;;;;;;;;;;18.90;70.10;;;;;;6132791;23;20410;-72
2022/10/03 12:11:07;;;;;;;;;;;18.90;70.30;;;;;;6113003;23;20361;-68
2022/10/03 12:13:36;;;;;;;;;;;18.90;71.50;;;;;;6103582;23;19909;-68
2022/10/03 12:16:01;;;;;;;;;;;18.80;72.30;;;;;;6108640;23;19904;-68
2022/10/03 12:18:27;;;;;;;;;;;18.80;72.90;;;;;;6106120;23;19909;-68
2022/10/03 12:21:04;;;;;;;;;;;19.00;72.90;;;;;;6107531;23;19905;-67
2022/10/03 12:23:50;;;;;;;;;;;19.00;73.10;;;;;;6108423;23;20489;-68
2022/10/03 12:26:22;;;;;;;;;;;19.20;72.80;;;;;;6108587;23;19905;-67
2022/10/03 12:28:51;;;;;;;;;;;19.40;72.00;;;;;;6108679;23;20607;-67
2022/10/03 12:31:20;;;;;;;;;;;19.40;71.20;;;;;;6109107;23;19905;-67
2022/10/03 12:33:52;;;;;;;;;;;19.20;71.30;;;;;;6108830;23;19915;-68
2022/10/03 12:36:22;;;;;;;;;;;19.00;72.10;;;;;;6108591;23;19904;-68
2022/10/03 12:38:53;;;;;;;;;;;19.00;71.70;;;;;;6108703;23;19916;-68
2022/10/03 12:41:30;;;;;;;;;;;18.90;72.20;;;;;;6105358;23;20207;-68
2022/10/03 12:44:04;;;;;;;;;;;18.90;72.50;;;;;;6107449;23;19911;-67
2022/10/03 12:46:36;;;;;;;;;;;18.90;72.70;;;;;;6102122;23;19941;-71
2022/10/03 12:49:25;;;;;;;;;;;18.90;72.00;;;;;;6107332;23;19904;-70
2022/10/03 12:51:54;;;;;;;;;;;18.90;72.30;;;;;;6088325;23;19913;-70
2022/10/03 12:54:38;;;;;;;;;;;18.90;72.60;;;;;;6109383;23;19905;-71
2022/10/03 12:57:15;;;;;;;;;;;18.80;72.80;;;;;;6108851;23;19905;-74
2022/10/03 13:00:02;;;;;;;;;;;18.90;71.40;;;;;;6109733;23;20141;-74
2022/10/03 13:02:35;;;;;;;;;;;18.60;72.10;;;;;;6083249;23;19909;-73
2022/10/03 13:05:01;;;;;;;;;;;18.50;72.10;;;;;;6107852;23;19980;-73
2022/10/03 13:07:42;;;;;;;;;;;18.50;72.60;;;;;;6109375;23;19905;-73
2022/10/03 13:10:10;;;;;;;;;;;18.60;72.00;;;;;;6110656;23;19908;-73
2022/10/03 13:12:38;;;;;;;;;;;18.40;71.60;;;;;;6109268;23;19963;-74
2022/10/03 13:15:22;;;;;;;;;;;18.30;71.00;;;;;;6138461;23;19932;-73
2022/10/03 13:17:53;;;;;;;;;;;18.20;70.80;;;;;;6113077;23;19943;-73
2022/10/03 13:20:33;;;;;;;;;;;18.10;71.00;;;;;;6137622;23;19901;-73
2022/10/03 13:23:06;;;;;;;;;;;18.00;70.70;;;;;;6134388;23;19900;-73
2022/10/03 13:25:32;;;;;;;;;;;17.90;70.60;;;;;;6139250;23;19905;-73
2022/10/03 13:28:20;;;;;;;;;;;17.90;71.40;;;;;;6138180;23;20237;-73
2022/10/03 13:30:55;;;;;;;;;;;18.00;71.60;;;;;;6130958;23;19908;-73
2022/10/03 13:33:25;;;;;;;;;;;18.00;71.80;;;;;;6110998;23;19941;-71
2022/10/03 13:36:07;;;;;;;;;;;18.00;72.90;;;;;;6135519;23;20354;-71
2022/10/03 13:38:41;;;;;;;;;;;17.70;74.60;;;;;;6142588;23;19905;-74
2022/10/03 13:41:26;;;;;;;;;;;17.70;74.30;;;;;;6137178;23;19911;-74
2022/10/03 13:43:58;;;;;;;;;;;17.60;74.80;;;;;;6139077;23;19901;-73
2022/10/03 13:46:43;;;;;;;;;;;17.70;75.40;;;;;;6139018;23;19900;-73
2022/10/03 13:49:23;;;;;;;;;;;17.80;75.10;;;;;;6111102;23;20591;-74
2022/10/03 13:52:01;;;;;;;;;;;17.70;73.90;;;;;;6136156;23;19911;-74
2022/10/03 13:54:33;;;;;;;;;;;17.50;76.50;;;;;;6135086;23;19904;-74
2022/10/03 13:57:14;;;;;;;;;;;17.40;78.90;;;;;;6134239;23;19904;-74
2022/10/03 13:59:50;;;;;;;;;;;17.20;80.60;;;;;;6137052;23;19905;-74
2022/10/03 14:02:49;;;;;;;;;;;17.10;81.80;;;;;;6137139;23;19910;-73
2022/10/03 14:05:26;;;;;;;;;;;17.10;86.90;;;;;;6080481;23;19935;-73
2022/10/03 14:07:55;;;;;;;;;;;16.90;84.80;;;;;;6139808;23;19901;-74
2022/10/03 14:10:25;;;;;;;;;;;16.90;85.50;;;;;;6136798;23;19904;-73
2022/10/03 14:12:59;;;;;;;;;;;16.80;85.00;;;;;;6128241;23;19920;-73
2022/10/03 14:15:51;;;;;;;;;;;16.90;83.50;;;;;;6109201;23;19909;-73
2022/10/03 14:18:36;;;;;;;;;;;16.80;84.30;;;;;;6107388;23;19965;-73
2022/10/03 14:21:07;;;;;;;;;;;16.70;86.40;;;;;;6082290;23;19905;-73
2022/10/03 14:23:39;;;;;;;;;;;16.70;85.70;;;;;;6108506;23;19901;-73
2022/10/03 14:26:16;;;;;;;;;;;16.50;86.00;;;;;;6108609;23;19927;-73
2022/10/03 14:28:47;;;;;;;;;;;16.50;86.70;;;;;;6112852;23;19901;-73
2022/10/03 14:31:23;;;;;;;;;;;16.40;87.10;;;;;;6082182;23;19901;-73
2022/10/03 14:34:03;;;;;;;;;;;16.40;87.50;;;;;;6108083;23;19932;-73
2022/10/03 14:36:38;;;;;;;;;;;16.40;88.10;;;;;;6082209;23;19904;-73
2022/10/03 14:39:06;;;;;;;;;;;16.40;88.00;;;;;;6108687;23;20308;-73
2022/10/03 14:41:31;;;;;;;;;;;16.30;88.20;;;;;;6101374;23;20375;-73
2022/10/03 14:44:08;;;;;;;;;;;16.30;89.10;;;;;;6107697;23;19939;-74
2022/10/03 14:46:40;;;;;;;;;;;16.30;90.00;;;;;;6083244;23;19904;-73
2022/10/03 14:49:13;;;;;;;;;;;16.30;92.20;;;;;;6081828;23;19905;-73
2022/10/03 14:51:44;;;;;;;;;;;16.10;94.20;;;;;;6081776;23;19905;-73
2022/10/03 14:54:18;;;;;;;;;;;15.90;95.00;;;;;;6103599;23;20347;-74
2022/10/03 14:56:45;;;;;;;;;;;15.60;95.80;;;;;;6109740;23;19901;-72
2022/10/03 14:59:22;;;;;;;;;;;15.50;96.50;;;;;;6107811;23;19912;-73
2022/10/03 15:01:50;;;;;;;;;;;15.50;95.60;;;;;;6112728;23;19905;-73
2022/10/03 15:04:23;;;;;;;;;;;15.40;95.40;;;;;;6083415;23;19905;-73
2022/10/03 15:06:53;;;;;;;;;;;15.30;94.60;;;;;;6108621;23;19935;-73
2022/10/03 15:09:21;;;;;;;;;;;15.30;94.70;;;;;;6113001;23;19909;-73
2022/10/03 15:12:00;;;;;;;;;;;15.20;94.20;;;;;;6106440;23;20199;-73
2022/10/03 15:14:27;;;;;;;;;;;15.20;93.20;;;;;;6116088;23;19912;-73
2022/10/03 15:16:54;;;;;;;;;;;15.20;92.70;;;;;;6136121;23;19904;-73
2022/10/03 15:19:24;;;;;;;;;;;15.20;92.30;;;;;;6136773;23;19905;-73